Time,TemperatureF,DewpointF,PressureIn,WindDirection,WindDirectionDegrees,WindSpeedMPH,WindSpeedGustMPH,Humidity,HourlyPrecipIn,Conditions,Clouds,dailyrainin,SoftwareType,DateUTC
2013-01-29 00:00:00,34.5,34.0,30.06,WSW,248,1.0,2.0,98,0.02,,,0.04,meteohub,2013-01-29 05:00:00,
2013-01-29 00:01:00,34.5,34.0,30.06,WSW,248,2.0,2.0,98,0.01,,,0.04,meteohub,2013-01-29 05:01:00,
2013-01-29 00:02:00,34.7,34.2,30.06,WSW,248,1.0,2.0,98,0.01,,,0.04,meteohub,2013-01-29 05:02:00,
2013-01-29 00:03:00,34.7,34.2,30.06,WSW,248,0.0,2.0,98,0.01,,,0.04,meteohub,2013-01-29 05:03:00,
2013-01-29 00:08:00,34.7,34.2,30.05,WSW,248,2.0,3.0,98,0.01,,,0.00,meteohub,2013-01-29 05:08:00,
2013-01-29 00:13:00,34.9,34.3,30.05,WSW,248,0.0,3.0,98,0.01,,,0.00,meteohub,2013-01-29 05:13:00,
2013-01-29 00:18:00,35.1,34.5,30.05,WSW,248,0.0,3.0,98,0.01,,,0.00,meteohub,2013-01-29 05:18:00,
2013-01-29 00:23:00,35.1,34.5,30.05,WSW,248,0.0,3.0,98,0.01,,,0.00,meteohub,2013-01-29 05:23:00,
2013-01-29 00:28:00,35.2,34.7,30.04,WSW,248,0.0,2.0,98,0.01,,,0.00,meteohub,2013-01-29 05:28:00,
2013-01-29 00:33:00,35.2,34.7,30.04,WSW,248,0.0,2.0,98,0.01,,,0.00,meteohub,2013-01-29 05:33:00,
2013-01-29 00:38:00,35.2,34.7,30.04,WSW,248,0.0,2.0,98,0.01,,,0.00,meteohub,2013-01-29 05:38:00,
2013-01-29 00:43:00,35.2,34.7,30.04,WSW,248,0.0,2.0,98,0.01,,,0.00,meteohub,2013-01-29 05:43:00,
2013-01-29 00:48:00,35.1,34.5,30.04,WSW,248,0.0,1.0,98,0.00,,,0.00,meteohub,2013-01-29 05:48:00,
2013-01-29 00:53:00,34.9,34.3,30.04,WSW,248,0.0,0.0,98,0.00,,,0.00,meteohub,2013-01-29 05:53:00,
2013-01-29 00:58:00,34.7,34.2,30.04,WSW,248,0.0,0.0,98,0.00,,,0.00,meteohub,2013-01-29 05:58:00,
2013-01-29 01:03:00,34.5,34.0,30.03,WSW,248,0.0,1.0,98,0.01,,,0.00,meteohub,2013-01-29 06:03:00,
2013-01-29 01:08:00,34.3,33.8,30.04,WSW,248,0.0,1.0,98,0.01,,,0.01,meteohub,2013-01-29 06:08:00,
2013-01-29 01:13:00,34.3,33.8,30.04,WSW,248,1.0,2.0,98,0.01,,,0.01,meteohub,2013-01-29 06:13:00,
2013-01-29 01:18:00,34.7,34.2,30.04,WSW,248,0.0,2.0,98,0.01,,,0.01,meteohub,2013-01-29 06:18:00,
2013-01-29 01:23:00,34.5,34.0,30.04,WSW,248,0.0,2.0,98,0.01,,,0.01,meteohub,2013-01-29 06:23:00,
2013-01-29 01:28:00,34.3,33.8,30.04,WSW,248,0.0,2.0,98,0.01,,,0.01,meteohub,2013-01-29 06:28:00,
2013-01-29 01:33:00,34.3,33.8,30.04,WSW,248,1.0,2.0,98,0.01,,,0.01,meteohub,2013-01-29 06:33:00,
2013-01-29 01:38:00,34.5,34.0,30.04,WSW,248,1.0,2.0,98,0.01,,,0.01,meteohub,2013-01-29 06:38:00,
2013-01-29 01:44:00,35.1,34.5,30.04,WSW,248,0.0,2.0,98,0.01,,,0.01,meteohub,2013-01-29 06:44:00,
2013-01-29 01:49:00,35.6,35.1,30.04,WSW,248,0.0,2.0,98,0.01,,,0.01,meteohub,2013-01-29 06:49:00,
2013-01-29 01:54:00,36.1,35.6,30.04,WSW,248,0.0,2.0,98,0.01,,,0.01,meteohub,2013-01-29 06:54:00,
2013-01-29 01:59:00,36.1,35.6,30.04,WSW,248,0.0,2.0,98,0.01,,,0.01,meteohub,2013-01-29 06:59:00,
2013-01-29 02:04:00,36.1,35.6,30.05,WSW,248,2.0,2.0,98,0.00,,,0.01,meteohub,2013-01-29 07:04:00,
2013-01-29 02:09:00,36.1,35.6,30.05,WSW,248,1.0,2.0,98,0.00,,,0.01,meteohub,2013-01-29 07:09:00,
2013-01-29 02:14:00,36.1,35.6,30.05,WSW,248,1.0,2.0,98,0.00,,,0.01,meteohub,2013-01-29 07:14:00,
2013-01-29 02:19:00,36.3,35.8,30.05,WSW,248,0.0,2.0,98,0.00,,,0.01,meteohub,2013-01-29 07:19:00,
2013-01-29 02:24:00,36.5,36.0,30.06,WSW,248,1.0,2.0,98,0.00,,,0.01,meteohub,2013-01-29 07:24:00,
2013-01-29 02:29:00,36.7,36.1,30.06,WSW,248,0.0,2.0,98,0.00,,,0.01,meteohub,2013-01-29 07:29:00,
2013-01-29 02:34:00,36.7,36.1,30.06,WSW,248,2.0,3.0,98,0.01,,,0.02,meteohub,2013-01-29 07:34:00,
2013-01-29 02:39:00,36.9,36.3,30.06,WSW,248,2.0,3.0,98,0.01,,,0.02,meteohub,2013-01-29 07:39:00,
2013-01-29 02:44:00,36.9,36.3,30.05,WSW,248,0.0,3.0,98,0.01,,,0.02,meteohub,2013-01-29 07:44:00,
2013-01-29 02:49:00,36.9,36.3,30.05,WSW,246,1.0,3.0,98,0.01,,,0.02,meteohub,2013-01-29 07:49:00,
2013-01-29 02:54:00,36.9,36.3,30.06,WSW,248,1.0,2.0,98,0.01,,,0.02,meteohub,2013-01-29 07:54:00,
2013-01-29 02:59:00,36.7,36.1,30.06,WSW,248,0.0,2.0,98,0.01,,,0.02,meteohub,2013-01-29 07:59:00,
2013-01-29 03:04:00,36.9,36.3,30.06,WSW,248,1.0,2.0,98,0.01,,,0.02,meteohub,2013-01-29 08:04:00,
2013-01-29 03:09:00,36.9,36.3,30.06,WSW,248,2.0,2.0,98,0.01,,,0.02,meteohub,2013-01-29 08:09:00,
2013-01-29 03:14:00,36.9,36.3,30.06,WSW,248,1.0,2.0,98,0.01,,,0.02,meteohub,2013-01-29 08:14:00,
2013-01-29 03:19:00,36.9,36.3,30.06,WSW,248,1.0,2.0,98,0.01,,,0.02,meteohub,2013-01-29 08:19:00,
2013-01-29 03:24:00,36.9,36.3,30.06,WSW,248,0.0,2.0,98,0.01,,,0.02,meteohub,2013-01-29 08:24:00,
2013-01-29 03:29:00,36.9,36.3,30.06,WSW,248,0.0,2.0,98,0.00,,,0.02,meteohub,2013-01-29 08:29:00,
2013-01-29 03:34:00,36.9,36.3,30.05,WSW,248,1.0,2.0,98,0.00,,,0.02,meteohub,2013-01-29 08:34:00,
2013-01-29 03:39:00,36.7,36.1,30.05,WSW,248,0.0,2.0,98,0.00,,,0.02,meteohub,2013-01-29 08:39:00,
2013-01-29 03:44:00,36.7,36.1,30.06,WSW,248,0.0,2.0,98,0.00,,,0.02,meteohub,2013-01-29 08:44:00,
2013-01-29 03:49:00,36.7,36.1,30.06,WSW,248,0.0,2.0,98,0.00,,,0.02,meteohub,2013-01-29 08:49:00,
2013-01-29 03:54:00,36.7,36.1,30.06,WSW,248,0.0,2.0,98,0.00,,,0.02,meteohub,2013-01-29 08:54:00,
2013-01-29 03:59:00,36.7,36.1,30.06,WSW,248,0.0,2.0,98,0.00,,,0.02,meteohub,2013-01-29 08:59:00,
2013-01-29 04:04:00,36.7,36.1,30.06,WSW,248,0.0,2.0,98,0.01,,,0.03,meteohub,2013-01-29 09:04:00,
2013-01-29 04:10:00,36.7,36.1,30.06,WSW,248,0.0,2.0,98,0.01,,,0.03,meteohub,2013-01-29 09:10:00,
2013-01-29 04:15:00,36.7,36.1,30.06,WSW,248,0.0,2.0,98,0.01,,,0.03,meteohub,2013-01-29 09:15:00,
2013-01-29 04:20:00,36.9,36.3,30.06,WSW,248,0.0,2.0,98,0.01,,,0.03,meteohub,2013-01-29 09:20:00,
2013-01-29 04:25:00,36.9,36.3,30.06,WSW,248,0.0,2.0,98,0.01,,,0.03,meteohub,2013-01-29 09:25:00,
2013-01-29 04:30:00,36.9,36.3,30.06,WSW,248,0.0,2.0,98,0.01,,,0.03,meteohub,2013-01-29 09:30:00,
2013-01-29 04:35:00,36.7,36.1,30.06,WSW,248,0.0,1.0,98,0.01,,,0.03,meteohub,2013-01-29 09:35:00,
2013-01-29 04:40:00,36.9,36.3,30.06,WSW,248,1.0,2.0,98,0.01,,,0.03,meteohub,2013-01-29 09:40:00,
2013-01-29 04:45:00,37.2,36.7,30.06,WSW,248,0.0,2.0,98,0.01,,,0.03,meteohub,2013-01-29 09:45:00,
2013-01-29 04:50:00,37.2,36.7,30.06,WSW,248,0.0,2.0,98,0.01,,,0.03,meteohub,2013-01-29 09:50:00,
2013-01-29 04:55:00,37.6,37.4,30.06,WSW,248,0.0,2.0,99,0.01,,,0.03,meteohub,2013-01-29 09:55:00,
2013-01-29 05:00:00,37.8,37.2,30.07,WSW,248,1.0,2.0,98,0.00,,,0.03,meteohub,2013-01-29 10:00:00,
2013-01-29 05:05:00,37.9,37.4,30.07,WSW,248,0.0,2.0,98,0.00,,,0.03,meteohub,2013-01-29 10:05:00,
2013-01-29 05:10:00,38.1,37.9,30.07,WSW,248,2.0,2.0,99,0.00,,,0.03,meteohub,2013-01-29 10:10:00,
2013-01-29 05:15:00,38.1,37.9,30.07,WSW,248,2.0,2.0,99,0.00,,,0.03,meteohub,2013-01-29 10:15:00,
2013-01-29 05:20:00,38.3,38.1,30.07,WSW,246,0.0,2.0,99,0.00,,,0.03,meteohub,2013-01-29 10:20:00,
2013-01-29 05:25:00,38.7,38.5,30.08,WSW,246,0.0,2.0,99,0.00,,,0.03,meteohub,2013-01-29 10:25:00,
2013-01-29 05:30:00,38.8,38.7,30.08,WSW,248,0.0,2.0,99,0.00,,,0.03,meteohub,2013-01-29 10:30:00,
2013-01-29 05:35:00,39.0,38.8,30.08,WSW,248,0.0,2.0,99,0.00,,,0.03,meteohub,2013-01-29 10:35:00,
2013-01-29 05:40:00,39.0,38.8,30.08,WSW,248,1.0,2.0,99,0.00,,,0.03,meteohub,2013-01-29 10:40:00,
2013-01-29 05:45:00,39.0,38.8,30.08,WSW,248,0.0,2.0,99,0.00,,,0.03,meteohub,2013-01-29 10:45:00,
2013-01-29 05:50:00,39.2,39.0,30.08,WSW,248,0.0,2.0,99,0.00,,,0.03,meteohub,2013-01-29 10:50:00,
2013-01-29 05:55:00,39.0,38.8,30.09,WSW,248,1.0,2.0,99,0.00,,,0.03,meteohub,2013-01-29 10:55:00,
2013-01-29 06:00:00,39.2,39.0,30.09,WSW,248,0.0,2.0,99,0.00,,,0.03,meteohub,2013-01-29 11:00:00,
2013-01-29 06:05:00,39.4,39.2,30.09,WSW,248,0.0,2.0,99,0.00,,,0.03,meteohub,2013-01-29 11:05:00,
2013-01-29 06:10:00,39.4,39.2,30.09,WSW,248,1.0,2.0,99,0.00,,,0.03,meteohub,2013-01-29 11:10:00,
2013-01-29 06:15:00,39.6,39.4,30.09,WSW,248,0.0,2.0,99,0.00,,,0.03,meteohub,2013-01-29 11:15:00,
2013-01-29 06:20:00,39.6,39.4,30.09,WSW,247,0.0,2.0,99,0.00,,,0.03,meteohub,2013-01-29 11:20:00,
2013-01-29 06:25:00,39.6,39.4,30.09,WSW,247,0.0,2.0,99,0.00,,,0.03,meteohub,2013-01-29 11:25:00,
2013-01-29 06:30:00,39.4,39.2,30.10,WSW,247,1.0,0.0,99,0.00,,,0.03,meteohub,2013-01-29 11:30:00,
2013-01-29 06:35:00,39.4,39.2,30.09,WSW,247,0.0,2.0,99,0.00,,,0.03,meteohub,2013-01-29 11:35:00,
2013-01-29 06:40:00,39.2,38.7,30.09,WSW,246,0.0,2.0,98,0.00,,,0.03,meteohub,2013-01-29 11:40:00,
2013-01-29 06:45:00,39.0,38.5,30.09,WSW,247,0.0,2.0,98,0.00,,,0.03,meteohub,2013-01-29 11:45:00,
2013-01-29 06:51:00,39.0,38.5,30.10,WSW,246,0.0,0.0,98,0.00,,,0.03,meteohub,2013-01-29 11:51:00,
2013-01-29 06:56:00,39.0,38.5,30.10,WSW,246,0.0,0.0,98,0.00,,,0.03,meteohub,2013-01-29 11:56:00,
2013-01-29 07:01:00,39.0,38.5,30.10,WSW,246,0.0,0.0,98,0.00,,,0.03,meteohub,2013-01-29 12:01:00,
2013-01-29 07:06:00,38.8,38.3,30.10,WSW,246,0.0,0.0,98,0.00,,,0.03,meteohub,2013-01-29 12:06:00,
2013-01-29 07:11:00,38.7,38.1,30.10,WSW,246,0.0,0.0,98,0.00,,,0.03,meteohub,2013-01-29 12:11:00,
2013-01-29 07:16:00,38.5,37.9,30.10,WSW,246,0.0,0.0,98,0.00,,,0.03,meteohub,2013-01-29 12:16:00,
2013-01-29 07:21:00,38.5,37.9,30.10,WSW,246,0.0,0.0,98,0.00,,,0.03,meteohub,2013-01-29 12:21:00,
2013-01-29 07:26:00,38.5,37.9,30.11,WSW,246,0.0,0.0,98,0.00,,,0.03,meteohub,2013-01-29 12:26:00,
2013-01-29 07:31:00,38.5,37.9,30.11,WSW,245,0.0,0.0,98,0.00,,,0.03,meteohub,2013-01-29 12:31:00,
2013-01-29 07:36:00,38.5,37.9,30.11,WSW,245,0.0,0.0,98,0.00,,,0.03,meteohub,2013-01-29 12:36:00,
2013-01-29 07:41:00,38.7,38.1,30.11,WSW,245,0.0,0.0,98,0.00,,,0.03,meteohub,2013-01-29 12:41:00,
2013-01-29 07:46:00,38.7,38.5,30.11,WSW,245,0.0,0.0,99,0.00,,,0.03,meteohub,2013-01-29 12:46:00,
2013-01-29 07:51:00,38.7,38.5,30.11,WSW,244,0.0,0.0,99,0.00,,,0.03,meteohub,2013-01-29 12:51:00,
2013-01-29 07:56:00,38.7,38.5,30.12,WSW,244,0.0,0.0,99,0.00,,,0.03,meteohub,2013-01-29 12:56:00,
2013-01-29 08:01:00,38.5,37.9,30.12,WSW,244,0.0,0.0,98,0.00,,,0.03,meteohub,2013-01-29 13:01:00,
2013-01-29 08:06:00,38.5,37.9,30.12,WSW,242,0.0,0.0,98,0.00,,,0.03,meteohub,2013-01-29 13:06:00,
2013-01-29 08:11:00,38.5,37.9,30.12,WSW,242,0.0,0.0,98,0.00,,,0.03,meteohub,2013-01-29 13:11:00,
2013-01-29 08:16:00,38.5,37.9,30.12,WSW,241,0.0,0.0,98,0.00,,,0.03,meteohub,2013-01-29 13:16:00,
2013-01-29 08:21:00,38.7,38.5,30.12,WSW,238,0.0,0.0,99,0.00,,,0.03,meteohub,2013-01-29 13:21:00,
2013-01-29 08:26:00,38.7,38.5,30.12,SW,236,0.0,0.0,99,0.00,,,0.03,meteohub,2013-01-29 13:26:00,
2013-01-29 08:31:00,38.7,38.5,30.12,SW,233,0.0,0.0,99,0.00,,,0.03,meteohub,2013-01-29 13:31:00,
2013-01-29 08:36:00,38.8,38.7,30.13,WSW,248,0.0,0.0,99,0.00,,,0.03,meteohub,2013-01-29 13:36:00,
2013-01-29 08:41:00,39.0,38.5,30.13,WSW,248,0.0,0.0,98,0.00,,,0.03,meteohub,2013-01-29 13:41:00,
2013-01-29 08:46:00,39.0,38.5,30.14,WSW,248,0.0,0.0,98,0.00,,,0.03,meteohub,2013-01-29 13:46:00,
2013-01-29 08:51:00,39.0,38.5,30.14,WSW,248,0.0,2.0,98,0.00,,,0.03,meteohub,2013-01-29 13:51:00,
2013-01-29 08:56:00,39.4,39.2,30.14,WSW,248,0.0,2.0,99,0.00,,,0.03,meteohub,2013-01-29 13:56:00,
2013-01-29 09:01:00,39.6,39.4,30.13,WSW,248,0.0,2.0,99,0.00,,,0.03,meteohub,2013-01-29 14:01:00,
2013-01-29 09:06:00,39.7,39.6,30.13,WSW,248,0.0,0.0,99,0.00,,,0.03,meteohub,2013-01-29 14:06:00,
2013-01-29 09:11:00,39.9,39.7,30.14,WSW,248,0.0,0.0,99,0.00,,,0.03,meteohub,2013-01-29 14:11:00,
2013-01-29 09:16:00,40.3,40.1,30.14,WSW,248,0.0,0.0,99,0.00,,,0.03,meteohub,2013-01-29 14:16:00,
2013-01-29 09:21:00,40.5,40.3,30.14,WSW,248,0.0,0.0,99,0.00,,,0.03,meteohub,2013-01-29 14:21:00,
2013-01-29 09:26:00,40.6,40.5,30.14,WSW,248,0.0,0.0,99,0.00,,,0.03,meteohub,2013-01-29 14:26:00,
2013-01-29 09:31:00,41.0,41.0,30.15,WSW,248,0.0,1.0,100,0.00,,,0.03,meteohub,2013-01-29 14:31:00,
2013-01-29 09:36:00,41.4,41.2,30.15,WSW,248,0.0,1.0,99,0.00,,,0.03,meteohub,2013-01-29 14:36:00,
2013-01-29 09:41:00,41.5,41.4,30.14,WSW,248,0.0,1.0,99,0.00,,,0.03,meteohub,2013-01-29 14:41:00,
2013-01-29 09:46:00,41.5,41.4,30.14,WSW,248,0.0,0.0,99,0.00,,,0.03,meteohub,2013-01-29 14:46:00,
2013-01-29 09:51:00,41.7,41.5,30.14,WSW,248,0.0,0.0,99,0.00,,,0.03,meteohub,2013-01-29 14:51:00,
2013-01-29 09:56:00,41.9,41.7,30.15,WSW,248,0.0,0.0,99,0.00,,,0.03,meteohub,2013-01-29 14:56:00,
2013-01-29 10:01:00,42.3,42.1,30.15,WSW,248,0.0,0.0,99,0.00,,,0.03,meteohub,2013-01-29 15:01:00,
2013-01-29 10:06:00,42.3,42.1,30.15,WSW,248,0.0,1.0,99,0.00,,,0.03,meteohub,2013-01-29 15:06:00,
2013-01-29 10:11:00,42.3,42.1,30.15,WSW,248,0.0,1.0,99,0.00,,,0.03,meteohub,2013-01-29 15:11:00,
2013-01-29 10:16:00,42.4,42.3,30.15,WSW,248,0.0,1.0,99,0.00,,,0.03,meteohub,2013-01-29 15:16:00,
2013-01-29 10:21:00,42.6,42.4,30.15,WSW,248,0.0,1.0,99,0.00,,,0.03,meteohub,2013-01-29 15:21:00,
2013-01-29 10:26:00,42.6,42.4,30.15,WSW,248,1.0,1.0,99,0.00,,,0.03,meteohub,2013-01-29 15:26:00,
2013-01-29 10:31:00,43.0,42.8,30.15,WSW,248,1.0,1.0,99,0.00,,,0.03,meteohub,2013-01-29 15:31:00,
2013-01-29 10:36:00,43.2,43.0,30.15,WSW,247,2.0,2.0,99,0.00,,,0.03,meteohub,2013-01-29 15:36:00,
2013-01-29 10:41:00,43.3,43.2,30.15,WSW,246,0.0,2.0,99,0.00,,,0.03,meteohub,2013-01-29 15:41:00,
2013-01-29 10:47:00,43.7,43.5,30.15,WSW,248,0.0,3.0,99,0.00,,,0.03,meteohub,2013-01-29 15:47:00,
2013-01-29 10:52:00,44.2,44.1,30.15,WSW,248,1.0,3.0,99,0.00,,,0.03,meteohub,2013-01-29 15:52:00,
2013-01-29 10:57:00,44.2,44.1,30.14,WSW,246,2.0,3.0,99,0.00,,,0.03,meteohub,2013-01-29 15:57:00,
2013-01-29 11:02:00,44.4,44.2,30.14,WSW,247,0.0,3.0,99,0.00,,,0.03,meteohub,2013-01-29 16:02:00,
2013-01-29 11:07:00,44.6,44.4,30.14,WSW,247,0.0,3.0,99,0.00,,,0.03,meteohub,2013-01-29 16:07:00,
2013-01-29 11:12:00,45.0,44.8,30.14,WSW,246,0.0,3.0,99,0.00,,,0.03,meteohub,2013-01-29 16:12:00,
2013-01-29 11:17:00,45.0,44.8,30.14,WSW,247,0.0,1.0,99,0.00,,,0.03,meteohub,2013-01-29 16:17:00,
2013-01-29 11:22:00,45.3,45.1,30.13,WSW,247,0.0,1.0,99,0.00,,,0.03,meteohub,2013-01-29 16:22:00,
2013-01-29 11:27:00,45.3,44.8,30.13,WSW,246,0.0,0.0,98,0.00,,,0.03,meteohub,2013-01-29 16:27:00,
2013-01-29 11:32:00,45.7,45.5,30.12,WSW,246,0.0,0.0,99,0.00,,,0.03,meteohub,2013-01-29 16:32:00,
2013-01-29 11:37:00,45.9,45.3,30.12,WSW,247,0.0,1.0,98,0.00,,,0.03,meteohub,2013-01-29 16:37:00,
2013-01-29 11:42:00,46.0,45.5,30.12,WSW,247,1.0,3.0,98,0.00,,,0.03,meteohub,2013-01-29 16:42:00,
2013-01-29 11:47:00,46.2,45.7,30.12,WSW,247,0.0,3.0,98,0.00,,,0.03,meteohub,2013-01-29 16:47:00,
2013-01-29 11:52:00,46.4,45.9,30.12,WSW,246,0.0,3.0,98,0.00,,,0.03,meteohub,2013-01-29 16:52:00,
2013-01-29 11:57:00,46.6,46.0,30.12,WSW,247,1.0,2.0,98,0.00,,,0.03,meteohub,2013-01-29 16:57:00,
2013-01-29 12:02:00,46.8,46.0,30.12,WSW,247,1.0,2.0,97,0.00,,,0.03,meteohub,2013-01-29 17:02:00,
2013-01-29 12:07:00,46.9,46.2,30.12,WSW,248,1.0,3.0,97,0.00,,,0.03,meteohub,2013-01-29 17:07:00,
2013-01-29 12:12:00,47.1,46.4,30.12,WSW,246,2.0,3.0,97,0.00,,,0.03,meteohub,2013-01-29 17:12:00,
2013-01-29 12:17:00,47.5,46.4,30.12,WSW,247,3.0,3.0,96,0.00,,,0.03,meteohub,2013-01-29 17:17:00,
2013-01-29 12:22:00,47.5,46.4,30.12,WSW,247,4.0,4.0,96,0.00,,,0.03,meteohub,2013-01-29 17:22:00,
2013-01-29 12:27:00,47.7,46.2,30.12,WSW,246,0.0,4.0,95,0.00,,,0.03,meteohub,2013-01-29 17:27:00,
2013-01-29 12:32:00,47.7,46.2,30.12,WSW,248,0.0,4.0,95,0.00,,,0.03,meteohub,2013-01-29 17:32:00,
2013-01-29 12:37:00,47.7,46.2,30.11,WSW,248,0.0,4.0,95,0.00,,,0.03,meteohub,2013-01-29 17:37:00,
2013-01-29 12:42:00,47.8,46.4,30.11,WSW,248,0.0,4.0,95,0.00,,,0.03,meteohub,2013-01-29 17:42:00,
2013-01-29 12:47:00,48.0,46.4,30.11,WSW,248,0.0,4.0,94,0.00,,,0.03,meteohub,2013-01-29 17:47:00,
2013-01-29 12:52:00,48.2,46.6,30.10,WSW,248,0.0,4.0,94,0.00,,,0.03,meteohub,2013-01-29 17:52:00,
2013-01-29 12:57:00,48.6,46.9,30.10,WSW,248,0.0,2.0,94,0.00,,,0.03,meteohub,2013-01-29 17:57:00,
2013-01-29 13:02:00,48.7,47.1,30.10,WSW,248,0.0,2.0,94,0.00,,,0.03,meteohub,2013-01-29 18:02:00,
2013-01-29 13:07:00,49.1,47.5,30.10,WSW,248,0.0,1.0,94,0.00,,,0.03,meteohub,2013-01-29 18:07:00,
2013-01-29 13:12:00,49.5,47.8,30.09,WSW,248,0.0,2.0,94,0.00,,,0.03,meteohub,2013-01-29 18:12:00,
2013-01-29 13:17:00,49.6,47.7,30.09,WSW,247,0.0,2.0,93,0.00,,,0.03,meteohub,2013-01-29 18:17:00,
2013-01-29 13:22:00,49.8,47.8,30.09,WSW,246,0.0,2.0,93,0.00,,,0.03,meteohub,2013-01-29 18:22:00,
2013-01-29 13:27:00,50.4,48.4,30.08,WSW,248,0.0,1.0,93,0.00,,,0.03,meteohub,2013-01-29 18:27:00,
2013-01-29 13:32:00,50.7,48.7,30.09,WSW,248,2.0,2.0,93,0.00,,,0.03,meteohub,2013-01-29 18:32:00,
2013-01-29 13:37:00,51.1,48.9,30.08,WSW,248,1.0,3.0,92,0.00,,,0.03,meteohub,2013-01-29 18:37:00,
2013-01-29 13:42:00,51.4,49.3,30.08,WSW,248,0.0,3.0,92,0.00,,,0.03,meteohub,2013-01-29 18:42:00,
2013-01-29 13:47:00,52.0,49.5,30.07,WSW,248,0.0,3.0,91,0.00,,,0.03,meteohub,2013-01-29 18:47:00,
2013-01-29 13:52:00,52.3,49.5,30.07,WSW,248,0.0,2.0,90,0.00,,,0.03,meteohub,2013-01-29 18:52:00,
2013-01-29 13:57:00,52.7,49.5,30.06,WSW,248,3.0,3.0,89,0.00,,,0.03,meteohub,2013-01-29 18:57:00,
2013-01-29 14:02:00,53.1,49.8,30.06,WSW,240,0.0,3.0,89,0.00,,,0.03,meteohub,2013-01-29 19:02:00,
2013-01-29 14:07:00,53.4,50.0,30.06,WSW,240,2.0,3.0,88,0.00,,,0.03,meteohub,2013-01-29 19:07:00,
2013-01-29 14:12:00,54.0,50.5,30.06,WSW,240,0.0,3.0,88,0.00,,,0.03,meteohub,2013-01-29 19:12:00,
2013-01-29 14:17:00,54.3,50.5,30.06,SW,233,0.0,3.0,87,0.00,,,0.03,meteohub,2013-01-29 19:17:00,
2013-01-29 14:22:00,54.7,50.5,30.06,SSE,156,0.0,6.0,86,0.00,,,0.03,meteohub,2013-01-29 19:22:00,
2013-01-29 14:27:00,54.9,50.7,30.05,SSE,157,2.0,6.0,86,0.00,,,0.03,meteohub,2013-01-29 19:27:00,
2013-01-29 14:32:00,55.0,50.5,30.05,SSE,157,0.0,6.0,85,0.00,,,0.03,meteohub,2013-01-29 19:32:00,
2013-01-29 14:37:00,55.2,51.1,30.06,SSE,157,2.0,3.0,86,0.00,,,0.03,meteohub,2013-01-29 19:37:00,
2013-01-29 14:42:00,55.2,50.7,30.06,SE,146,2.0,3.0,85,0.00,,,0.03,meteohub,2013-01-29 19:42:00,
2013-01-29 14:47:00,55.6,51.1,30.06,SSE,158,0.0,3.0,85,0.00,,,0.03,meteohub,2013-01-29 19:47:00,
2013-01-29 14:52:00,55.8,51.1,30.06,SSE,157,0.0,3.0,84,0.00,,,0.03,meteohub,2013-01-29 19:52:00,
2013-01-29 14:57:00,55.9,51.3,30.06,SSE,159,0.0,3.0,84,0.00,,,0.03,meteohub,2013-01-29 19:57:00,
2013-01-29 14:58:00,55.9,51.3,30.06,SSE,148,2.0,3.0,84,0.00,,,0.03,meteohub,2013-01-29 19:58:00,
2013-01-29 15:03:00,56.3,51.4,30.06,SE,138,0.0,4.0,84,0.00,,,0.03,meteohub,2013-01-29 20:03:00,
2013-01-29 15:08:00,56.7,51.6,30.06,SSE,155,0.0,4.0,83,0.00,,,0.03,meteohub,2013-01-29 20:08:00,
2013-01-29 15:13:00,56.7,51.6,30.06,SSE,155,0.0,4.0,83,0.00,,,0.03,meteohub,2013-01-29 20:13:00,
2013-01-29 15:18:00,56.8,51.8,30.06,SSE,155,1.0,3.0,83,0.00,,,0.03,meteohub,2013-01-29 20:18:00,
2013-01-29 15:23:00,57.0,52.0,30.06,SSE,155,1.0,3.0,83,0.00,,,0.03,meteohub,2013-01-29 20:23:00,
2013-01-29 15:28:00,57.0,52.0,30.06,ESE,111,7.0,7.0,83,0.00,,,0.03,meteohub,2013-01-29 20:28:00,
2013-01-29 15:33:00,57.2,51.8,30.06,SSE,157,2.0,8.0,82,0.00,,,0.03,meteohub,2013-01-29 20:33:00,
2013-01-29 15:38:00,56.8,51.4,30.06,SSE,156,3.0,8.0,82,0.00,,,0.03,meteohub,2013-01-29 20:38:00,
2013-01-29 15:43:00,56.7,51.3,30.05,South,180,0.0,8.0,82,0.00,,,0.03,meteohub,2013-01-29 20:43:00,
2013-01-29 15:48:00,56.7,51.3,30.05,SE,145,0.0,4.0,82,0.00,,,0.03,meteohub,2013-01-29 20:48:00,
2013-01-29 15:53:00,56.5,51.4,30.05,SE,144,3.0,4.0,83,0.00,,,0.03,meteohub,2013-01-29 20:53:00,
2013-01-29 15:58:00,56.5,51.4,30.05,SE,145,3.0,4.0,83,0.00,,,0.03,meteohub,2013-01-29 20:58:00,
2013-01-29 16:03:00,56.5,51.4,30.04,SE,145,0.0,4.0,83,0.00,,,0.03,meteohub,2013-01-29 21:03:00,
2013-01-29 16:08:00,55.9,50.9,30.04,ESE,114,1.0,4.0,83,0.00,,,0.03,meteohub,2013-01-29 21:08:00,
2013-01-29 16:13:00,55.8,50.7,30.04,SE,137,2.0,5.0,83,0.00,,,0.03,meteohub,2013-01-29 21:13:00,
2013-01-29 16:18:00,55.8,50.7,30.04,SSE,165,0.0,6.0,83,0.00,,,0.03,meteohub,2013-01-29 21:18:00,
2013-01-29 16:23:00,55.6,50.2,30.04,SSE,149,1.0,7.0,82,0.00,,,0.03,meteohub,2013-01-29 21:23:00,
2013-01-29 16:28:00,55.2,50.2,30.04,SSE,149,1.0,7.0,83,0.00,,,0.03,meteohub,2013-01-29 21:28:00,
2013-01-29 16:33:00,55.0,50.0,30.04,SE,124,3.0,7.0,83,0.00,,,0.03,meteohub,2013-01-29 21:33:00,
2013-01-29 16:38:00,54.7,49.6,30.04,ESE,123,2.0,4.0,83,0.00,,,0.03,meteohub,2013-01-29 21:38:00,
2013-01-29 16:43:00,54.5,49.5,30.04,SE,144,0.0,4.0,83,0.00,,,0.03,meteohub,2013-01-29 21:43:00,
2013-01-29 16:48:00,54.1,49.1,30.05,SE,144,0.0,4.0,83,0.00,,,0.03,meteohub,2013-01-29 21:48:00,
2013-01-29 16:53:00,54.0,49.3,30.04,SE,146,0.0,4.0,84,0.00,,,0.03,meteohub,2013-01-29 21:53:00,
2013-01-29 16:58:00,53.8,49.1,30.05,SE,136,0.0,4.0,84,0.00,,,0.03,meteohub,2013-01-29 21:58:00,
2013-01-29 17:03:00,53.1,48.4,30.05,SE,136,2.0,4.0,84,0.00,,,0.03,meteohub,2013-01-29 22:03:00,
2013-01-29 17:08:00,52.7,48.4,30.05,SE,136,2.0,4.0,85,0.00,,,0.03,meteohub,2013-01-29 22:08:00,
2013-01-29 17:13:00,52.5,48.2,30.05,SE,140,2.0,4.0,85,0.00,,,0.03,meteohub,2013-01-29 22:13:00,
2013-01-29 17:18:00,52.2,48.0,30.05,South,172,1.0,3.0,86,0.00,,,0.03,meteohub,2013-01-29 22:18:00,
2013-01-29 17:23:00,52.0,47.8,30.05,SSE,160,2.0,4.0,86,0.00,,,0.03,meteohub,2013-01-29 22:23:00,
2013-01-29 17:29:00,51.8,47.7,30.06,ESE,123,0.0,4.0,86,0.00,,,0.03,meteohub,2013-01-29 22:29:00,
2013-01-29 17:34:00,51.4,47.5,30.06,ESE,123,1.0,4.0,86,0.00,,,0.03,meteohub,2013-01-29 22:34:00,
2013-01-29 17:39:00,51.3,47.5,30.06,SE,138,0.0,3.0,87,0.00,,,0.03,meteohub,2013-01-29 22:39:00,
2013-01-29 17:44:00,50.9,47.1,30.06,SSW,194,4.0,4.0,87,0.00,,,0.03,meteohub,2013-01-29 22:44:00,
2013-01-29 17:49:00,50.5,47.1,30.06,ESE,115,2.0,4.0,88,0.00,,,0.03,meteohub,2013-01-29 22:49:00,
2013-01-29 17:54:00,50.5,47.1,30.06,SE,142,0.0,4.0,88,0.00,,,0.03,meteohub,2013-01-29 22:54:00,
2013-01-29 17:59:00,50.4,46.9,30.06,SSE,155,0.0,4.0,88,0.00,,,0.03,meteohub,2013-01-29 22:59:00,
2013-01-29 18:04:00,50.2,47.1,30.06,SSE,155,2.0,4.0,89,0.00,,,0.03,meteohub,2013-01-29 23:04:00,
2013-01-29 18:09:00,49.8,46.8,30.06,SE,142,0.0,3.0,89,0.00,,,0.03,meteohub,2013-01-29 23:09:00,
2013-01-29 18:14:00,49.6,46.6,30.06,SE,140,1.0,6.0,89,0.00,,,0.03,meteohub,2013-01-29 23:14:00,
2013-01-29 18:19:00,49.5,46.6,30.06,ESE,106,2.0,6.0,90,0.00,,,0.03,meteohub,2013-01-29 23:19:00,
2013-01-29 18:24:00,49.3,46.4,30.06,SE,138,0.0,6.0,90,0.00,,,0.03,meteohub,2013-01-29 23:24:00,
2013-01-29 18:29:00,49.3,46.8,30.06,SE,132,0.0,4.0,91,0.00,,,0.03,meteohub,2013-01-29 23:29:00,
2013-01-29 18:34:00,49.3,46.8,30.07,SE,134,1.0,4.0,91,0.00,,,0.03,meteohub,2013-01-29 23:34:00,
2013-01-29 18:39:00,48.9,46.4,30.06,SE,135,0.0,4.0,91,0.00,,,0.03,meteohub,2013-01-29 23:39:00,
2013-01-29 18:44:00,48.7,46.2,30.06,South,190,2.0,4.0,91,0.00,,,0.03,meteohub,2013-01-29 23:44:00,
2013-01-29 18:49:00,48.6,46.0,30.06,ESE,121,0.0,3.0,91,0.00,,,0.03,meteohub,2013-01-29 23:49:00,
2013-01-29 18:54:00,48.4,46.2,30.06,SE,130,1.0,3.0,92,0.00,,,0.03,meteohub,2013-01-29 23:54:00,
2013-01-29 18:59:00,48.0,45.5,30.06,SE,130,0.0,3.0,91,0.00,,,0.03,meteohub,2013-01-29 23:59:00,
2013-01-29 19:04:00,47.8,45.7,30.06,SE,140,0.0,3.0,92,0.00,,,0.03,meteohub,2013-01-30 00:04:00,
2013-01-29 19:09:00,47.7,45.5,30.06,SE,133,3.0,5.0,92,0.00,,,0.03,meteohub,2013-01-30 00:09:00,
2013-01-29 19:14:00,47.5,45.3,30.06,SE,134,0.0,8.0,92,0.00,,,0.03,meteohub,2013-01-30 00:14:00,
2013-01-29 19:19:00,47.5,45.3,30.06,ESE,123,0.0,8.0,92,0.00,,,0.03,meteohub,2013-01-30 00:19:00,
2013-01-29 19:24:00,47.1,45.0,30.06,ESE,123,0.0,8.0,92,0.00,,,0.03,meteohub,2013-01-30 00:24:00,
2013-01-29 19:29:00,46.9,44.8,30.06,SE,124,2.0,4.0,92,0.00,,,0.03,meteohub,2013-01-30 00:29:00,
2013-01-29 19:34:00,46.6,44.6,30.06,ENE,74,1.0,2.0,93,0.00,,,0.03,meteohub,2013-01-30 00:34:00,
2013-01-29 19:39:00,46.6,44.6,30.06,ENE,61,0.0,2.0,93,0.00,,,0.03,meteohub,2013-01-30 00:39:00,
2013-01-29 19:44:00,46.4,44.4,30.06,East,89,0.0,2.0,93,0.00,,,0.03,meteohub,2013-01-30 00:44:00,
2013-01-29 19:49:00,46.0,44.1,30.06,SSE,155,4.0,4.0,93,0.00,,,0.03,meteohub,2013-01-30 00:49:00,
2013-01-29 19:54:00,45.9,43.9,30.06,SE,141,0.0,5.0,93,0.00,,,0.03,meteohub,2013-01-30 00:54:00,
2013-01-29 19:59:00,45.9,43.9,30.06,SE,141,0.0,5.0,93,0.00,,,0.03,meteohub,2013-01-30 00:59:00,
2013-01-29 20:04:00,45.9,43.9,30.06,SE,141,0.0,5.0,93,0.00,,,0.03,meteohub,2013-01-30 01:04:00,
2013-01-29 20:09:00,45.7,43.7,30.06,SE,140,0.0,4.0,93,0.00,,,0.03,meteohub,2013-01-30 01:09:00,
2013-01-29 20:14:00,45.5,43.5,30.06,SE,140,1.0,2.0,93,0.00,,,0.03,meteohub,2013-01-30 01:14:00,
2013-01-29 20:19:00,45.3,43.3,30.06,SE,137,0.0,2.0,93,0.00,,,0.03,meteohub,2013-01-30 01:19:00,
2013-01-29 20:24:00,45.1,43.2,30.06,SE,137,0.0,2.0,93,0.00,,,0.03,meteohub,2013-01-30 01:24:00,
2013-01-29 20:29:00,45.0,43.0,30.06,SE,137,1.0,2.0,93,0.00,,,0.03,meteohub,2013-01-30 01:29:00,
2013-01-29 20:34:00,44.8,43.2,30.06,SE,137,0.0,2.0,94,0.00,,,0.03,meteohub,2013-01-30 01:34:00,
2013-01-29 20:39:00,44.8,43.2,30.06,SE,137,0.0,2.0,94,0.00,,,0.03,meteohub,2013-01-30 01:39:00,
2013-01-29 20:44:00,44.4,42.8,30.06,SE,137,0.0,2.0,94,0.00,,,0.03,meteohub,2013-01-30 01:44:00,
2013-01-29 20:49:00,44.4,42.8,30.06,SE,137,0.0,2.0,94,0.00,,,0.03,meteohub,2013-01-30 01:49:00,
2013-01-29 20:55:00,44.2,42.6,30.06,SE,137,0.0,1.0,94,0.00,,,0.03,meteohub,2013-01-30 01:55:00,
2013-01-29 21:00:00,44.2,42.6,30.06,SE,137,0.0,2.0,94,0.00,,,0.03,meteohub,2013-01-30 02:00:00,
2013-01-29 21:05:00,44.2,42.6,30.06,SE,136,1.0,2.0,94,0.00,,,0.03,meteohub,2013-01-30 02:05:00,
2013-01-29 21:10:00,44.1,42.4,30.06,SE,136,0.0,2.0,94,0.00,,,0.03,meteohub,2013-01-30 02:10:00,
2013-01-29 21:15:00,44.1,42.4,30.05,SE,136,1.0,2.0,94,0.00,,,0.03,meteohub,2013-01-30 02:15:00,
2013-01-29 21:20:00,43.9,42.3,30.05,SE,131,1.0,2.0,94,0.00,,,0.03,meteohub,2013-01-30 02:20:00,
2013-01-29 21:25:00,43.9,42.3,30.05,SE,131,0.0,2.0,94,0.00,,,0.03,meteohub,2013-01-30 02:25:00,
2013-01-29 21:30:00,43.9,42.6,30.05,SE,131,0.0,2.0,95,0.00,,,0.03,meteohub,2013-01-30 02:30:00,
2013-01-29 21:35:00,43.5,41.9,30.05,SE,130,0.0,2.0,94,0.00,,,0.03,meteohub,2013-01-30 02:35:00,
2013-01-29 21:40:00,43.3,41.7,30.05,SE,130,1.0,2.0,94,0.00,,,0.03,meteohub,2013-01-30 02:40:00,
2013-01-29 21:45:00,43.3,42.1,30.04,SE,129,1.0,2.0,95,0.00,,,0.03,meteohub,2013-01-30 02:45:00,
2013-01-29 21:50:00,43.3,42.1,30.04,SE,129,0.0,2.0,95,0.00,,,0.03,meteohub,2013-01-30 02:50:00,
2013-01-29 21:55:00,43.2,41.9,30.04,SE,129,0.0,2.0,95,0.00,,,0.03,meteohub,2013-01-30 02:55:00,
2013-01-29 22:00:00,43.2,41.9,30.04,SE,129,0.0,2.0,95,0.00,,,0.03,meteohub,2013-01-30 03:00:00,
2013-01-29 22:05:00,43.0,41.7,30.04,East,88,0.0,2.0,95,0.00,,,0.03,meteohub,2013-01-30 03:05:00,
2013-01-29 22:10:00,42.6,41.4,30.04,East,88,0.0,3.0,95,0.00,,,0.03,meteohub,2013-01-30 03:10:00,
2013-01-29 22:15:00,42.4,41.2,30.04,East,88,0.0,3.0,95,0.00,,,0.03,meteohub,2013-01-30 03:15:00,
2013-01-29 22:20:00,42.4,41.2,30.04,East,88,0.0,3.0,95,0.00,,,0.03,meteohub,2013-01-30 03:20:00,
2013-01-29 22:25:00,42.3,41.0,30.03,East,87,0.0,0.0,95,0.00,,,0.03,meteohub,2013-01-30 03:25:00,
2013-01-29 22:30:00,42.3,41.0,30.03,East,87,0.0,0.0,95,0.00,,,0.03,meteohub,2013-01-30 03:30:00,
2013-01-29 22:35:00,42.3,41.0,30.03,East,87,0.0,1.0,95,0.00,,,0.03,meteohub,2013-01-30 03:35:00,
2013-01-29 22:40:00,42.3,41.0,30.03,East,88,0.0,2.0,95,0.00,,,0.03,meteohub,2013-01-30 03:40:00,
2013-01-29 22:45:00,42.3,41.0,30.03,East,88,0.0,2.0,95,0.00,,,0.03,meteohub,2013-01-30 03:45:00,
2013-01-29 22:50:00,42.1,40.8,30.03,East,88,0.0,2.0,95,0.00,,,0.03,meteohub,2013-01-30 03:50:00,
2013-01-29 22:55:00,42.3,41.2,30.02,East,88,0.0,0.0,96,0.00,,,0.03,meteohub,2013-01-30 03:55:00,
2013-01-29 23:00:00,42.3,41.2,30.02,East,88,0.0,0.0,96,0.00,,,0.03,meteohub,2013-01-30 04:00:00,
2013-01-29 23:05:00,42.4,41.4,30.02,East,88,0.0,0.0,96,0.00,,,0.03,meteohub,2013-01-30 04:05:00,
2013-01-29 23:10:00,42.3,41.2,30.02,East,87,1.0,2.0,96,0.00,,,0.03,meteohub,2013-01-30 04:10:00,
2013-01-29 23:15:00,42.4,41.4,30.02,East,88,0.0,2.0,96,0.00,,,0.03,meteohub,2013-01-30 04:15:00,
2013-01-29 23:20:00,42.4,41.4,30.02,East,87,0.0,2.0,96,0.00,,,0.03,meteohub,2013-01-30 04:20:00,
2013-01-29 23:26:00,42.6,41.5,30.03,East,88,0.0,2.0,96,0.00,,,0.03,meteohub,2013-01-30 04:26:00,
2013-01-29 23:31:00,42.4,41.4,30.03,East,87,0.0,2.0,96,0.00,,,0.03,meteohub,2013-01-30 04:31:00,
2013-01-29 23:36:00,42.6,41.5,30.02,East,87,0.0,2.0,96,0.00,,,0.03,meteohub,2013-01-30 04:36:00,
2013-01-29 23:41:00,42.4,41.4,30.03,East,88,0.0,1.0,96,0.00,,,0.03,meteohub,2013-01-30 04:41:00,
2013-01-29 23:46:00,42.4,41.4,30.02,East,87,0.0,2.0,96,0.00,,,0.03,meteohub,2013-01-30 04:46:00,
2013-01-29 23:51:00,42.4,41.4,30.03,East,88,0.0,2.0,96,0.00,,,0.03,meteohub,2013-01-30 04:51:00,
2013-01-29 23:56:00,42.3,41.2,30.03,East,88,1.0,2.0,96,0.00,,,0.03,meteohub,2013-01-30 04:56:00,